createdAt,value
2022-10-29T00:00:42.821Z,100067.16
2022-10-29T00:03:10.162Z,100054.09
2022-10-29T00:05:36.975Z,100045.47
2022-10-29T00:08:03.836Z,100044.28
2022-10-29T00:10:30.731Z,100072.56
2022-10-29T00:13:01.158Z,100056.56
2022-10-29T00:15:27.935Z,100055.00
2022-10-29T00:17:54.958Z,100075.66
2022-10-29T00:20:21.987Z,100067.34
2022-10-29T00:22:48.694Z,100057.91
2022-10-29T00:25:15.513Z,100051.47
2022-10-29T00:27:42.228Z,100059.75
2022-10-29T00:30:09.719Z,100059.16
2022-10-29T00:32:36.470Z,100053.00
2022-10-29T00:35:03.245Z,100066.03
2022-10-29T00:37:29.935Z,100063.63
2022-10-29T00:39:56.590Z,100038.97
2022-10-29T00:42:23.321Z,100054.75
2022-10-29T00:44:51.403Z,100052.53
2022-10-29T00:47:22.039Z,100063.13
2022-10-29T00:49:52.851Z,100066.47
2022-10-29T00:52:22.562Z,100062.56
2022-10-29T00:54:50.793Z,100076.00
2022-10-29T00:57:26.417Z,100062.41
2022-10-29T00:59:53.235Z,100055.75
2022-10-29T01:02:21.438Z,100065.66
2022-10-29T01:04:49.490Z,100061.81
2022-10-29T01:07:16.579Z,100077.38
2022-10-29T01:09:43.555Z,100049.78
2022-10-29T01:12:33.481Z,100049.16
2022-10-29T01:15:09.372Z,100042.88
2022-10-29T01:17:59.238Z,100053.78
2022-10-29T01:20:38.310Z,100059.53
2022-10-29T01:23:32.841Z,100063.50
2022-10-29T01:26:20.890Z,100068.28
2022-10-29T01:29:38.748Z,100057.81
2022-10-29T01:32:13.432Z,100035.91
2022-10-29T01:34:48.251Z,100025.09
2022-10-29T01:37:26.544Z,100027.88
2022-10-29T01:39:59.474Z,100028.03
2022-10-29T01:42:34.198Z,100059.50
2022-10-29T01:45:23.893Z,100043.72
2022-10-29T01:47:56.966Z,100023.88
2022-10-29T01:50:25.316Z,100022.25
2022-10-29T01:52:54.612Z,100023.88
2022-10-29T01:55:28.136Z,100020.06
2022-10-29T01:57:55.132Z,100007.31
2022-10-29T02:00:22.481Z,100006.00
2022-10-29T02:03:00.618Z,100021.25
2022-10-29T02:05:27.784Z,100014.81
2022-10-29T02:08:32.863Z,100008.94
2022-10-29T02:11:36.717Z,100005.03
2022-10-29T02:14:09.724Z,100002.09
2022-10-29T02:16:37.273Z,100000.56
2022-10-29T02:19:05.937Z,100002.28
2022-10-29T02:21:32.634Z,99985.22
2022-10-29T02:23:59.503Z,99995.72
2022-10-29T02:26:26.181Z,99980.50
2022-10-29T02:28:52.884Z,99981.09
2022-10-29T02:31:19.620Z,99969.72
2022-10-29T02:33:46.302Z,99984.88
2022-10-29T02:36:13.036Z,99973.63
2022-10-29T02:38:39.742Z,99974.56
2022-10-29T02:41:06.625Z,99970.75
2022-10-29T02:43:33.337Z,99952.34
2022-10-29T02:46:15.000Z,99961.25
2022-10-29T02:48:42.247Z,99972.00
2022-10-29T02:51:09.364Z,99973.38
2022-10-29T02:53:36.096Z,99974.09
2022-10-29T02:56:03.196Z,99960.78
2022-10-29T02:58:30.089Z,99952.13
2022-10-29T03:00:56.935Z,99971.41
2022-10-29T03:03:24.550Z,99971.41
2022-10-29T03:05:51.736Z,99955.63
2022-10-29T03:08:18.775Z,99966.97
2022-10-29T03:10:45.471Z,99983.81
2022-10-29T03:13:12.262Z,99965.00
2022-10-29T03:15:38.989Z,99938.97
2022-10-29T03:18:06.040Z,99961.91
2022-10-29T03:20:32.727Z,99970.81
2022-10-29T03:22:59.443Z,99973.84
2022-10-29T03:25:26.104Z,99959.09
2022-10-29T03:27:52.878Z,99968.34
2022-10-29T03:30:19.860Z,99954.56
2022-10-29T03:32:48.153Z,99973.44
2022-10-29T03:35:16.411Z,99970.63
2022-10-29T03:37:43.293Z,99984.63
2022-10-29T03:40:10.255Z,99972.78
2022-10-29T03:42:38.581Z,99979.06
2022-10-29T03:45:05.709Z,99972.66
2022-10-29T03:47:33.728Z,99992.38
2022-10-29T03:50:00.477Z,99988.63
2022-10-29T03:52:27.399Z,99994.25
2022-10-29T03:54:54.224Z,99980.31
2022-10-29T03:57:20.948Z,99994.75
2022-10-29T03:59:51.578Z,100009.00
2022-10-29T04:02:21.835Z,100018.78
2022-10-29T04:04:48.692Z,99999.03
2022-10-29T04:07:15.761Z,100002.56
2022-10-29T04:09:42.422Z,100011.09
2022-10-29T04:12:09.633Z,100027.69
2022-10-29T04:14:39.978Z,100023.28
2022-10-29T04:17:12.177Z,100018.91
2022-10-29T04:19:38.856Z,100016.47
2022-10-29T04:28:41.436Z,100020.34
2022-10-29T04:30:26.191Z,100030.28
2022-10-29T04:32:57.663Z,100042.63
2022-10-29T04:35:28.579Z,100044.56
2022-10-29T04:37:55.641Z,100030.59
2022-10-29T04:40:24.610Z,100033.41
2022-10-29T04:42:51.433Z,100020.59
2022-10-29T04:45:18.669Z,100036.38
2022-10-29T04:47:45.345Z,100028.03
2022-10-29T04:50:12.092Z,100008.28
2022-10-29T04:52:38.860Z,100006.06
2022-10-29T04:55:05.872Z,100021.25
2022-10-29T04:57:32.608Z,99991.81
2022-10-29T04:59:59.281Z,100024.34
2022-10-29T05:02:25.992Z,100027.44
2022-10-29T05:04:52.670Z,99977.63
2022-10-29T05:07:19.413Z,100023.50
2022-10-29T05:09:46.095Z,100005.47
2022-10-29T05:12:12.760Z,100013.28
2022-10-29T05:14:39.451Z,100014.63
2022-10-29T05:19:37.711Z,100027.44
2022-10-29T05:22:04.572Z,100029.97
2022-10-29T05:24:31.269Z,100020.97
2022-10-29T05:26:57.954Z,100027.94
2022-10-29T05:29:24.664Z,100018.78
2022-10-29T05:31:53.590Z,100029.00
2022-10-29T05:34:21.612Z,100019.63
2022-10-29T05:36:48.384Z,100009.34
2022-10-29T05:39:15.320Z,100022.78
2022-10-29T05:41:42.423Z,100020.22
2022-10-29T05:44:09.421Z,100020.81
2022-10-29T05:46:36.090Z,100028.88
2022-10-29T05:49:03.208Z,100032.28
2022-10-29T05:51:29.983Z,100006.56
2022-10-29T05:53:56.649Z,100000.56
2022-10-29T05:56:23.394Z,100020.63
2022-10-29T05:58:50.705Z,100030.72
2022-10-29T06:01:19.911Z,100022.22
2022-10-29T06:03:47.125Z,100041.38
2022-10-29T06:06:13.963Z,100030.84
2022-10-29T06:08:40.745Z,100031.19
2022-10-29T06:11:07.421Z,100015.13
2022-10-29T06:13:34.164Z,100018.38
2022-10-29T06:16:01.130Z,100032.03
2022-10-29T06:18:28.276Z,100026.41
2022-10-29T06:20:58.555Z,100016.84
2022-10-29T06:23:25.547Z,100008.69
2022-10-29T06:25:52.492Z,100025.81
2022-10-29T06:28:19.515Z,100024.22
2022-10-29T06:30:49.199Z,100027.19
2022-10-29T06:33:19.370Z,100029.00
2022-10-29T06:35:46.604Z,100032.88
2022-10-29T06:38:13.802Z,100029.88
2022-10-29T06:40:41.623Z,100031.81
2022-10-29T06:43:12.052Z,99993.66
2022-10-29T06:45:39.209Z,100031.34
2022-10-29T06:48:06.246Z,100038.53
2022-10-29T06:50:33.144Z,100034.34
2022-10-29T06:53:02.205Z,100031.94
2022-10-29T06:55:29.302Z,100020.22
2022-10-29T06:58:01.074Z,100028.25
2022-10-29T07:00:28.811Z,100017.13
2022-10-29T07:02:57.634Z,100020.94
2022-10-29T07:05:25.156Z,100022.34
2022-10-29T07:08:00.495Z,100016.59
2022-10-29T07:10:29.525Z,100032.53
2022-10-29T07:12:56.529Z,100017.13
2022-10-29T07:15:27.311Z,100032.59
2022-10-29T07:17:59.088Z,100040.38
2022-10-29T07:20:27.276Z,100037.97
2022-10-29T07:22:53.996Z,100019.84
2022-10-29T07:25:20.983Z,100031.34
2022-10-29T07:27:47.800Z,100018.03
2022-10-29T07:30:14.839Z,100022.34
2022-10-29T07:32:41.705Z,100021.94
2022-10-29T07:35:08.656Z,100026.72
2022-10-29T07:37:35.571Z,100031.16
2022-10-29T07:40:02.283Z,100007.47
2022-10-29T07:42:29.115Z,99991.75
2022-10-29T07:44:55.882Z,100037.75
2022-10-29T07:47:22.621Z,100006.94
2022-10-29T07:49:49.381Z,99991.78
2022-10-29T07:52:16.095Z,100031.59
2022-10-29T07:54:42.859Z,100017.13
2022-10-29T07:57:09.673Z,100023.09
2022-10-29T07:59:36.403Z,100028.75
2022-10-29T08:02:03.205Z,100028.88
2022-10-29T08:04:29.901Z,100000.50
2022-10-29T08:06:56.778Z,100013.84
2022-10-29T08:09:23.475Z,100023.94
2022-10-29T08:11:50.229Z,100009.50
2022-10-29T08:14:20.255Z,100016.44
2022-10-29T08:16:49.191Z,100034.38
2022-10-29T08:19:15.873Z,100030.13
2022-10-29T08:21:42.621Z,100030.44
2022-10-29T08:24:10.604Z,100034.38
2022-10-29T08:26:37.352Z,100011.56
2022-10-29T08:29:04.643Z,100019.47
2022-10-29T08:31:31.385Z,100017.63
2022-10-29T08:33:58.068Z,100015.81
2022-10-29T08:36:24.838Z,100025.72
2022-10-29T08:38:51.579Z,100012.25
2022-10-29T08:41:43.962Z,100035.38
2022-10-29T08:44:16.767Z,100036.38
2022-10-29T08:46:55.441Z,100025.19
2022-10-29T08:49:47.402Z,100008.03
2022-10-29T08:52:25.872Z,100024.28
2022-10-29T08:55:18.261Z,100002.69
2022-10-29T08:57:52.225Z,100024.09
2022-10-29T09:00:34.500Z,100006.88
2022-10-29T09:03:01.763Z,100028.34
2022-10-29T09:05:36.566Z,100026.50
2022-10-29T09:08:22.031Z,100012.56
2022-10-29T09:10:54.841Z,100014.66
2022-10-29T09:13:33.392Z,100021.94
2022-10-29T09:16:15.149Z,100006.16
2022-10-29T09:19:01.448Z,99997.81
2022-10-29T09:21:46.564Z,99995.81
2022-10-29T09:24:35.326Z,100014.78
2022-10-29T09:27:26.047Z,100002.06
2022-10-29T09:30:20.429Z,100004.63
2022-10-29T09:33:09.363Z,100003.66
2022-10-29T09:35:48.940Z,99993.75
2022-10-29T09:38:23.105Z,100008.56
2022-10-29T09:40:50.125Z,100008.78
2022-10-29T09:43:43.646Z,100016.28
2022-10-29T09:46:18.409Z,100010.66
2022-10-29T09:49:29.948Z,100019.28
2022-10-29T09:52:02.817Z,100007.50
2022-10-29T09:54:31.757Z,99997.16
2022-10-29T09:57:00.900Z,99959.38
2022-10-29T09:59:37.128Z,99999.78
2022-10-29T10:02:19.444Z,99996.06
2022-10-29T10:04:51.307Z,99998.63
2022-10-29T10:07:20.896Z,100000.47
2022-10-29T10:10:01.876Z,99989.13
2022-10-29T10:12:44.042Z,99991.56
2022-10-29T10:15:16.456Z,99994.34
2022-10-29T10:17:57.091Z,99991.56
2022-10-29T10:20:28.846Z,99950.00
2022-10-29T10:22:55.855Z,99934.81
2022-10-29T10:25:41.090Z,99980.00
2022-10-29T10:28:21.658Z,99979.88
2022-10-29T10:31:13.389Z,99964.97
2022-10-29T10:33:54.549Z,99948.88
2022-10-29T10:36:25.300Z,99966.03
2022-10-29T10:38:54.151Z,99928.25
2022-10-29T10:41:34.484Z,99947.75
2022-10-29T10:44:03.706Z,99953.22
2022-10-29T10:46:35.651Z,99951.84
2022-10-29T10:49:25.945Z,99967.09
2022-10-29T10:51:55.034Z,99954.06
2022-10-29T10:54:30.824Z,99953.56
2022-10-29T10:57:03.531Z,99936.81
2022-10-29T10:59:58.820Z,99960.22
2022-10-29T11:02:33.577Z,99957.34
2022-10-29T11:05:15.145Z,99948.00
2022-10-29T11:07:48.592Z,99937.66
2022-10-29T11:10:17.718Z,99930.69
2022-10-29T11:12:50.115Z,99924.03
2022-10-29T11:15:34.698Z,99913.81
2022-10-29T11:18:19.632Z,99859.19
2022-10-29T11:20:58.007Z,99902.13
2022-10-29T11:23:31.726Z,99928.41
2022-10-29T11:26:17.888Z,99892.13
2022-10-29T11:29:11.213Z,99917.31
2022-10-29T11:32:05.124Z,99929.25
2022-10-29T11:34:54.548Z,99916.09
2022-10-29T11:37:27.033Z,99910.03
2022-10-29T11:40:12.419Z,99905.94
2022-10-29T11:42:39.477Z,99879.66
2022-10-29T11:45:12.190Z,99921.09
2022-10-29T11:48:20.548Z,99923.16
2022-10-29T11:51:08.677Z,99924.41
2022-10-29T11:53:54.786Z,99905.50
2022-10-29T11:56:37.073Z,99870.63
2022-10-29T11:59:42.094Z,99895.53
2022-10-29T12:02:27.341Z,99895.06
2022-10-29T12:05:17.663Z,99849.72
2022-10-29T12:08:27.587Z,99887.06
2022-10-29T12:11:00.569Z,99894.09
2022-10-29T12:13:46.814Z,99888.84
2022-10-29T12:16:16.588Z,99882.41
2022-10-29T12:18:51.032Z,99872.59
2022-10-29T12:21:36.261Z,99863.78
2022-10-29T12:24:33.999Z,99862.28
2022-10-29T12:27:13.323Z,99847.88
2022-10-29T12:29:48.144Z,99844.97
2022-10-29T12:32:25.573Z,99853.47
2022-10-29T12:35:03.087Z,99857.06
2022-10-29T12:37:37.438Z,99858.09
2022-10-29T12:40:26.752Z,99838.75
2022-10-29T12:42:55.351Z,99851.16
2022-10-29T12:45:59.516Z,99844.94
2022-10-29T12:48:39.032Z,99842.53
2022-10-29T12:51:19.775Z,99831.19
2022-10-29T12:53:46.423Z,99841.00
2022-10-29T12:56:16.387Z,99841.78
2022-10-29T12:58:48.954Z,99830.88
2022-10-29T13:01:57.338Z,99838.06
2022-10-29T13:04:27.031Z,99834.41
2022-10-29T13:07:12.268Z,99829.34
2022-10-29T13:09:40.349Z,99830.75
2022-10-29T13:12:12.526Z,99832.13
2022-10-29T13:14:44.794Z,99826.88
2022-10-29T13:17:34.955Z,99826.19
2022-10-29T13:20:30.251Z,99821.16
2022-10-29T13:23:03.850Z,99798.97
2022-10-29T13:25:33.260Z,99809.66
2022-10-29T13:28:01.089Z,99793.22
2022-10-29T13:30:29.196Z,99809.13
2022-10-29T13:32:57.080Z,99796.06
2022-10-29T13:35:27.538Z,99804.03
2022-10-29T13:38:09.251Z,99806.44
2022-10-29T13:40:42.660Z,99796.59
2022-10-29T13:43:18.388Z,99807.13
2022-10-29T13:45:59.821Z,99792.59
2022-10-29T13:48:34.441Z,99802.75
2022-10-29T13:51:07.367Z,99794.78
2022-10-29T13:53:50.482Z,99815.44
2022-10-29T13:56:24.393Z,99806.31
2022-10-29T13:58:53.616Z,99792.06
2022-10-29T14:01:22.577Z,99791.88
2022-10-29T14:04:07.093Z,99800.84
2022-10-29T14:06:38.042Z,99795.91
2022-10-29T14:09:35.140Z,99789.50
2022-10-29T14:12:05.778Z,99792.22
2022-10-29T14:15:00.991Z,99799.00
2022-10-29T14:17:27.680Z,99778.69
2022-10-29T14:19:54.374Z,99785.28
2022-10-29T14:22:38.184Z,99773.94
2022-10-29T14:25:24.973Z,99788.66
2022-10-29T14:28:13.683Z,99786.63
2022-10-29T14:30:40.453Z,99773.78
2022-10-29T14:33:26.946Z,99783.25
2022-10-29T14:35:59.322Z,99788.84
2022-10-29T14:38:44.195Z,99797.44
2022-10-29T14:41:11.920Z,99779.03
2022-10-29T14:43:39.855Z,99793.56
2022-10-29T14:46:28.139Z,99802.03
2022-10-29T14:49:12.562Z,99793.75
2022-10-29T14:51:57.423Z,99794.56
2022-10-29T14:54:31.542Z,99768.16
2022-10-29T14:57:03.160Z,99781.16
2022-10-29T14:59:32.718Z,99785.00
2022-10-29T15:02:17.159Z,99793.13
2022-10-29T15:05:02.969Z,99796.84
2022-10-29T15:07:35.734Z,99770.44
2022-10-29T15:10:08.713Z,99798.72
2022-10-29T15:12:37.559Z,99776.47
2022-10-29T15:15:10.054Z,99803.19
2022-10-29T15:17:48.977Z,99796.66
2022-10-29T15:20:22.642Z,99802.88
2022-10-29T15:22:55.153Z,99785.59
2022-10-29T15:25:35.601Z,99794.34
2022-10-29T15:28:03.136Z,99798.22
2022-10-29T15:30:38.389Z,99804.94
2022-10-29T15:33:08.389Z,99808.56
2022-10-29T15:35:36.627Z,99811.69
2022-10-29T15:38:04.052Z,99800.03
2022-10-29T15:40:30.958Z,99806.25
2022-10-29T15:43:28.303Z,99809.03
2022-10-29T15:45:58.399Z,99808.78
2022-10-29T15:48:36.238Z,99817.66
2022-10-29T15:51:04.377Z,99806.97
2022-10-29T15:53:31.087Z,99815.06
2022-10-29T15:55:58.326Z,99811.94
2022-10-29T15:58:25.108Z,99802.97
2022-10-29T16:00:51.942Z,99804.22
2022-10-29T16:03:22.064Z,99816.31
2022-10-29T16:05:56.132Z,99818.75
2022-10-29T16:08:22.872Z,99824.06
2022-10-29T16:10:49.830Z,99819.03
2022-10-29T16:13:17.881Z,99826.44
2022-10-29T16:15:44.834Z,99791.97
2022-10-29T16:18:11.622Z,99800.63
2022-10-29T16:20:38.390Z,99811.28
2022-10-29T16:23:05.254Z,99821.22
2022-10-29T16:25:31.951Z,99824.91
2022-10-29T16:27:59.074Z,99823.53
2022-10-29T16:30:26.185Z,99819.41
2022-10-29T16:32:55.118Z,99827.78
2022-10-29T16:35:23.466Z,99833.59
2022-10-29T16:37:51.958Z,99839.44
2022-10-29T16:40:21.284Z,99839.84
2022-10-29T16:42:48.549Z,99838.88
2022-10-29T16:45:18.400Z,99829.97
2022-10-29T16:47:46.051Z,99834.53
2022-10-29T16:50:17.515Z,99835.94
2022-10-29T16:52:44.853Z,99834.94
2022-10-29T16:55:11.978Z,99833.25
2022-10-29T16:57:39.454Z,99838.34
2022-10-29T17:00:07.930Z,99834.09
2022-10-29T17:02:34.858Z,99828.44
2022-10-29T17:05:01.963Z,99811.47
2022-10-29T17:07:28.970Z,99821.47
2022-10-29T17:09:55.737Z,99820.94
2022-10-29T17:12:22.802Z,99826.34
2022-10-29T17:14:49.647Z,99829.16
2022-10-29T17:17:16.379Z,99823.91
2022-10-29T17:19:43.091Z,99828.59
2022-10-29T17:22:14.330Z,99814.00
2022-10-29T17:24:41.530Z,99831.84
2022-10-29T17:27:08.687Z,99835.25
2022-10-29T17:29:36.556Z,99829.44
2022-10-29T17:34:36.633Z,99835.66
2022-10-29T17:37:03.685Z,99819.09
2022-10-29T17:39:30.719Z,99840.34
2022-10-29T17:41:59.305Z,99811.75
2022-10-29T17:44:29.794Z,99828.16
2022-10-29T17:46:57.269Z,99830.84
2022-10-29T17:49:26.134Z,99826.19
2022-10-29T17:51:53.073Z,99837.78
2022-10-29T17:54:21.490Z,99815.25
2022-10-29T17:56:49.192Z,99810.28
2022-10-29T17:59:16.275Z,99835.75
2022-10-29T18:01:45.261Z,99838.88
2022-10-29T18:04:12.217Z,99809.91
2022-10-29T18:06:39.252Z,99831.63
2022-10-29T18:09:06.520Z,99831.53
2022-10-29T18:11:33.350Z,99817.66
2022-10-29T18:14:00.091Z,99813.53
2022-10-29T18:16:29.323Z,99832.53
2022-10-29T18:19:02.832Z,99824.00
2022-10-29T18:21:32.306Z,99814.34
2022-10-29T18:23:59.552Z,99827.00
2022-10-29T18:26:32.216Z,99818.44
2022-10-29T18:29:01.064Z,99813.03
2022-10-29T18:31:31.018Z,99818.66
2022-10-29T18:33:59.963Z,99821.50
2022-10-29T18:36:27.512Z,99814.13
2022-10-29T18:38:56.373Z,99815.06
2022-10-29T18:41:25.352Z,99813.63
2022-10-29T18:43:52.626Z,99804.13
2022-10-29T18:46:20.161Z,99809.94
2022-10-29T18:48:48.405Z,99812.44
2022-10-29T18:51:19.836Z,99816.53
2022-10-29T18:53:47.054Z,99812.41
2022-10-29T18:56:20.583Z,99810.38
2022-10-29T18:58:48.341Z,99789.94
2022-10-29T19:01:17.794Z,99798.72
2022-10-29T19:03:49.701Z,99803.63
2022-10-29T19:06:17.128Z,99811.28
2022-10-29T19:08:44.914Z,99819.06
2022-10-29T19:11:14.402Z,99809.25
2022-10-29T19:13:41.914Z,99813.22
2022-10-29T19:16:11.604Z,99807.38
2022-10-29T19:18:40.838Z,99808.75
2022-10-29T19:21:11.488Z,99807.03
2022-10-29T19:23:39.545Z,99810.78
2022-10-29T19:26:17.734Z,99798.13
2022-10-29T19:28:46.508Z,99803.25
2022-10-29T19:31:18.856Z,99803.44
2022-10-29T19:33:54.781Z,99806.78
2022-10-29T19:36:23.431Z,99806.44
2022-10-29T19:38:50.674Z,99811.75
2022-10-29T19:41:18.687Z,99814.22
2022-10-29T19:43:47.837Z,99808.16
2022-10-29T19:46:17.297Z,99806.81
2022-10-29T19:48:50.160Z,99810.34
2022-10-29T19:51:17.661Z,99802.09
2022-10-29T19:53:45.029Z,99813.25
2022-10-29T19:56:13.762Z,99802.56
2022-10-29T19:58:40.734Z,99814.28
2022-10-29T20:01:10.990Z,99810.03
2022-10-29T20:03:37.784Z,99811.00
2022-10-29T20:06:06.677Z,99814.56
2022-10-29T20:08:33.942Z,99805.22
2022-10-29T20:11:00.941Z,99793.19
2022-10-29T20:13:27.825Z,99805.25
2022-10-29T20:15:55.045Z,99808.19
2022-10-29T20:18:25.014Z,99788.44
2022-10-29T20:20:56.143Z,99806.69
2022-10-29T20:23:25.945Z,99799.28
2022-10-29T20:25:52.941Z,99810.09
2022-10-29T20:28:20.019Z,99801.34
2022-10-29T20:30:46.938Z,99806.56
2022-10-29T20:33:14.478Z,99788.25
2022-10-29T20:35:41.365Z,99814.41
2022-10-29T20:38:08.436Z,99819.78
2022-10-29T20:40:35.863Z,99824.63
2022-10-29T20:43:02.769Z,99816.56
2022-10-29T20:45:29.779Z,99814.22
2022-10-29T20:47:57.285Z,99813.63
2022-10-29T20:50:24.586Z,99821.31
2022-10-29T20:52:51.515Z,99801.41
2022-10-29T20:55:18.632Z,99812.06
2022-10-29T20:57:45.785Z,99812.34
2022-10-29T21:00:12.979Z,99828.88
2022-10-29T21:02:40.085Z,99824.84
2022-10-29T21:05:07.095Z,99788.22
2022-10-29T21:07:34.014Z,99789.75
2022-10-29T21:10:00.711Z,99813.59
2022-10-29T21:12:27.449Z,99811.09
2022-10-29T21:14:54.141Z,99793.91
2022-10-29T21:17:22.286Z,99821.00
2022-10-29T21:19:49.332Z,99804.53
2022-10-29T21:22:19.153Z,99792.91
2022-10-29T21:24:46.081Z,99809.72
2022-10-29T21:27:12.841Z,99806.19
2022-10-29T21:29:39.617Z,99806.78
2022-10-29T21:32:06.434Z,99783.41
2022-10-29T21:34:33.193Z,99786.53
2022-10-29T21:36:59.989Z,99783.00
2022-10-29T21:39:27.776Z,99796.59
2022-10-29T21:41:54.537Z,99792.50
2022-10-29T21:44:21.481Z,99802.75
2022-10-29T21:46:48.223Z,99793.03
2022-10-29T21:49:14.988Z,99791.69
2022-10-29T21:51:42.258Z,99772.56
2022-10-29T21:54:09.001Z,99758.25
2022-10-29T21:56:35.672Z,99786.91
2022-10-29T21:59:02.636Z,99783.50
2022-10-29T22:01:29.458Z,99785.91
2022-10-29T22:03:56.220Z,99796.25
2022-10-29T22:06:25.960Z,99783.38
2022-10-29T22:08:57.473Z,99787.41
2022-10-29T22:11:25.380Z,99793.91
2022-10-29T22:13:53.194Z,99792.06
2022-10-29T22:16:20.821Z,99795.72
2022-10-29T22:18:49.802Z,99793.63
2022-10-29T22:21:25.334Z,99786.81
2022-10-29T22:23:53.970Z,99771.50
2022-10-29T22:26:23.632Z,99781.59
2022-10-29T22:28:50.483Z,99790.81
2022-10-29T22:31:19.430Z,99785.72
2022-10-29T22:33:46.460Z,99781.75
2022-10-29T22:36:16.443Z,99780.78
2022-10-29T22:38:43.309Z,99777.53
2022-10-29T22:41:15.913Z,99789.31
2022-10-29T22:43:43.732Z,99791.41
2022-10-29T22:46:12.981Z,99764.75
2022-10-29T22:48:39.787Z,99769.47
2022-10-29T22:51:27.456Z,99781.59
2022-10-29T22:53:54.694Z,99786.25
2022-10-29T22:56:24.201Z,99789.19
2022-10-29T22:58:51.221Z,99771.78
2022-10-29T23:03:37.722Z,99789.91
2022-10-29T23:06:06.503Z,99785.72
2022-10-29T23:08:33.861Z,99793.50
2022-10-29T23:11:21.543Z,99787.81
2022-10-29T23:13:58.137Z,99788.53
2022-10-29T23:16:27.072Z,99788.66
2022-10-29T23:18:56.172Z,99783.31
2022-10-29T23:21:23.317Z,99756.31
2022-10-29T23:23:50.355Z,99731.50
2022-10-29T23:26:21.320Z,99760.28
2022-10-29T23:28:49.270Z,99792.13
2022-10-29T23:31:21.521Z,99783.94
2022-10-29T23:33:51.114Z,99784.13
2022-10-29T23:36:19.131Z,99765.38
2022-10-29T23:38:45.903Z,99771.72
2022-10-29T23:41:12.945Z,99764.84
2022-10-29T23:43:39.766Z,99778.56
2022-10-29T23:46:06.601Z,99776.03
2022-10-29T23:48:33.298Z,99777.00
2022-10-29T23:51:00.083Z,99777.28
2022-10-29T23:53:26.866Z,99772.16
2022-10-29T23:55:53.624Z,99763.25
2022-10-29T23:58:20.461Z,99778.38
